Time;durP1;ratioP1;P1;durP2;ratioP2;P2;SDS_P1;SDS_P2;PMS_P1;PMS_P2;Temp;Humidity;BMP_temperature;BMP_pressure;BME280_temperature;BME280_humidity;BME280_pressure;Samples;Min_cycle;Max_cycle;Signal;HPM_P1;HPM_P2
2023/06/25 00:00:56;;;;;;;0.20;0.20;;;19.10;99.90;;;;;;5050934;28;20112;-80
2023/06/25 00:03:23;;;;;;;0.20;0.20;;;19.10;99.90;;;;;;5041389;28;20290;-80
2023/06/25 00:05:49;;;;;;;0.20;0.20;;;19.10;99.90;;;;;;5051095;28;20029;-80
2023/06/25 00:08:16;;;;;;;0.20;0.20;;;19.10;99.90;;;;;;5049638;28;20119;-80
2023/06/25 00:10:41;;;;;;;0.20;0.20;;;19.10;99.90;;;;;;5051107;28;20072;-80
2023/06/25 00:13:07;;;;;;;0.20;0.20;;;19.00;99.90;;;;;;5049159;28;20088;-80
2023/06/25 00:15:33;;;;;;;0.20;0.20;;;19.00;99.90;;;;;;5049261;28;20495;-80
2023/06/25 00:17:59;;;;;;;0.20;0.20;;;19.00;99.90;;;;;;5050176;28;20041;-80
2023/06/25 00:20:26;;;;;;;0.20;0.20;;;19.00;99.90;;;;;;5049783;28;20574;-80
2023/06/25 00:22:52;;;;;;;0.20;0.20;;;19.00;99.90;;;;;;5047989;28;20053;-80
2023/06/25 00:25:18;;;;;;;0.20;0.20;;;19.00;99.90;;;;;;5050137;28;20091;-80
2023/06/25 00:27:47;;;;;;;0.20;0.20;;;18.90;99.90;;;;;;5043493;28;20384;-80
2023/06/25 00:30:16;;;;;;;0.20;0.20;;;18.90;99.90;;;;;;5048941;28;20067;-81
2023/06/25 00:32:43;;;;;;;0.20;0.20;;;18.90;99.90;;;;;;5045835;28;20061;-80
2023/06/25 00:35:09;;;;;;;0.20;0.20;;;18.90;99.90;;;;;;5049013;28;20033;-80
2023/06/25 00:37:38;;;;;;;0.20;0.20;;;18.90;99.90;;;;;;5048061;28;20136;-80
2023/06/25 00:40:05;;;;;;;0.20;0.20;;;18.80;99.90;;;;;;5047931;28;20505;-80
2023/06/25 00:42:41;;;;;;;0.20;0.20;;;18.80;99.90;;;;;;5042047;28;20048;-80
2023/06/25 00:45:12;;;;;;;0.20;0.20;;;18.80;99.90;;;;;;5047630;28;20077;-80
2023/06/25 00:47:39;;;;;;;0.20;0.20;;;18.80;99.90;;;;;;5044343;28;20041;-80
2023/06/25 00:50:05;;;;;;;0.20;0.20;;;18.80;99.90;;;;;;5049722;28;20037;-80
2023/06/25 00:52:31;;;;;;;0.20;0.20;;;18.80;99.90;;;;;;5048839;28;20056;-80
2023/06/25 00:54:57;;;;;;;0.20;0.20;;;18.80;99.90;;;;;;5050813;28;20691;-80
2023/06/25 00:57:27;;;;;;;0.20;0.20;;;18.80;99.90;;;;;;5048604;28;20064;-80
2023/06/25 00:59:55;;;;;;;0.20;0.20;;;18.80;99.90;;;;;;5050348;28;20401;-80
2023/06/25 01:02:32;;;;;;;0.20;0.20;;;18.80;99.90;;;;;;5047573;28;21447;-80
2023/06/25 01:05:05;;;;;;;0.20;0.20;;;18.80;99.90;;;;;;5047890;28;20083;-80
2023/06/25 01:07:36;;;;;;;0.20;0.20;;;18.80;99.90;;;;;;5048526;28;20045;-80
2023/06/25 01:10:04;;;;;;;0.20;0.20;;;18.70;99.90;;;;;;5047237;28;20052;-80
2023/06/25 01:12:29;;;;;;;0.20;0.20;;;18.70;99.90;;;;;;5039743;28;20068;-80
2023/06/25 01:14:57;;;;;;;0.20;0.20;;;18.70;99.90;;;;;;5047925;28;20049;-80
2023/06/25 01:17:23;;;;;;;0.20;0.20;;;18.70;99.90;;;;;;5047973;28;20117;-80
2023/06/25 01:19:48;;;;;;;0.20;0.20;;;18.70;99.90;;;;;;5048269;28;20045;-80
2023/06/25 01:22:16;;;;;;;0.20;0.20;;;18.70;99.90;;;;;;5046975;28;20048;-80
2023/06/25 01:24:44;;;;;;;0.20;0.20;;;18.60;99.90;;;;;;5047373;28;20053;-80
2023/06/25 01:27:11;;;;;;;0.20;0.20;;;18.70;99.90;;;;;;5050430;28;20380;-80
2023/06/25 01:29:38;;;;;;;0.20;0.20;;;18.60;99.90;;;;;;5042757;28;20044;-80
2023/06/25 01:32:06;;;;;;;0.20;0.20;;;18.60;99.90;;;;;;5044797;28;20061;-80
2023/06/25 01:34:32;;;;;;;0.20;0.20;;;18.60;99.90;;;;;;5045168;28;20410;-80
2023/06/25 01:36:58;;;;;;;0.20;0.20;;;18.60;99.90;;;;;;5043834;28;20041;-81
2023/06/25 01:39:24;;;;;;;0.30;0.30;;;18.60;99.90;;;;;;5047501;28;20037;-79
2023/06/25 01:41:50;;;;;;;0.13;0.13;;;18.50;99.90;;;;;;5044839;28;20033;-80
2023/06/25 01:44:25;;;;;;;0.20;0.20;;;18.50;99.90;;;;;;5048715;28;20454;-80
2023/06/25 01:46:51;;;;;;;0.20;0.20;;;18.50;99.90;;;;;;5046456;28;20048;-80
2023/06/25 01:49:17;;;;;;;0.20;0.20;;;18.50;99.90;;;;;;5047195;28;20048;-80
2023/06/25 01:51:42;;;;;;;0.20;0.20;;;18.50;99.90;;;;;;5047212;28;20041;-80
2023/06/25 01:54:08;;;;;;;0.20;0.20;;;18.50;99.90;;;;;;5045763;28;20049;-81
2023/06/25 01:56:34;;;;;;;0.20;0.20;;;18.50;99.90;;;;;;5044896;28;20246;-80
2023/06/25 01:58:59;;;;;;;0.22;0.22;;;18.50;99.90;;;;;;5044495;28;20029;-81
2023/06/25 02:01:25;;;;;;;0.10;0.10;;;18.50;99.90;;;;;;5045385;28;20506;-80
2023/06/25 02:03:51;;;;;;;0.20;0.20;;;18.50;99.90;;;;;;5050683;28;20098;-81
2023/06/25 02:06:17;;;;;;;0.17;0.17;;;18.50;99.90;;;;;;5045884;28;20029;-80
2023/06/25 02:08:42;;;;;;;0.20;0.20;;;18.50;99.90;;;;;;5045190;28;20037;-80
2023/06/25 02:11:08;;;;;;;0.20;0.20;;;18.50;99.90;;;;;;5046552;28;20045;-80
2023/06/25 02:13:34;;;;;;;0.20;0.20;;;18.40;99.90;;;;;;5047139;28;20098;-80
2023/06/25 02:16:00;;;;;;;0.20;0.20;;;18.40;99.90;;;;;;5046383;28;20048;-80
2023/06/25 02:18:31;;;;;;;0.20;0.20;;;18.40;99.90;;;;;;5043744;28;20083;-80
2023/06/25 02:20:57;;;;;;;0.20;0.20;;;18.40;99.90;;;;;;5048383;28;20041;-80
2023/06/25 02:23:22;;;;;;;0.20;0.20;;;18.40;99.90;;;;;;5048797;28;20033;-80
2023/06/25 02:25:50;;;;;;;0.10;0.10;;;18.30;99.90;;;;;;5047690;28;20136;-80
2023/06/25 02:28:16;;;;;;;0.20;0.20;;;18.30;99.90;;;;;;5045213;28;20084;-80
2023/06/25 02:30:42;;;;;;;0.20;0.20;;;18.30;99.90;;;;;;5045199;28;20032;-80
2023/06/25 02:33:08;;;;;;;0.20;0.20;;;18.30;99.90;;;;;;5048669;28;20049;-80
2023/06/25 02:35:34;;;;;;;0.20;0.20;;;18.30;99.90;;;;;;5034203;28;20466;-80
2023/06/25 02:37:59;;;;;;;0.20;0.20;;;18.30;99.90;;;;;;5052701;28;20127;-80
2023/06/25 02:40:28;;;;;;;0.20;0.20;;;18.30;99.90;;;;;;5037415;28;20045;-81
2023/06/25 02:42:55;;;;;;;0.20;0.20;;;18.20;99.90;;;;;;5052013;28;20041;-80
2023/06/25 02:45:21;;;;;;;0.20;0.20;;;18.20;99.90;;;;;;5051663;28;20131;-81
2023/06/25 02:47:47;;;;;;;0.20;0.20;;;18.20;99.90;;;;;;5052514;28;20041;-80
2023/06/25 02:50:13;;;;;;;0.20;0.20;;;18.20;99.90;;;;;;5053044;28;20052;-80
2023/06/25 02:52:39;;;;;;;0.20;0.20;;;18.20;99.90;;;;;;5034527;28;20045;-80
2023/06/25 02:55:05;;;;;;;0.20;0.20;;;18.20;99.90;;;;;;5035158;28;20569;-80
2023/06/25 02:57:31;;;;;;;0.10;0.10;;;18.20;99.90;;;;;;5032604;28;20041;-79
2023/06/25 02:59:57;;;;;;;0.20;0.20;;;18.20;99.90;;;;;;5052202;28;20115;-80
2023/06/25 03:02:23;;;;;;;0.20;0.20;;;18.20;99.90;;;;;;5050840;28;20044;-79
2023/06/25 03:04:49;;;;;;;0.20;0.20;;;18.20;99.90;;;;;;5034948;28;20041;-80
2023/06/25 03:07:15;;;;;;;0.10;0.10;;;18.20;99.90;;;;;;5051409;28;20041;-79
2023/06/25 03:09:41;;;;;;;0.10;0.10;;;18.20;99.90;;;;;;5034479;28;20074;-79
2023/06/25 03:12:08;;;;;;;0.20;0.20;;;18.20;99.90;;;;;;5032470;28;20041;-80
2023/06/25 03:14:34;;;;;;;0.20;0.20;;;18.20;99.90;;;;;;5052294;28;20036;-80
2023/06/25 03:17:00;;;;;;;0.20;0.20;;;18.20;99.90;;;;;;5026729;28;20033;-80
2023/06/25 03:19:25;;;;;;;0.20;0.20;;;18.20;99.90;;;;;;5031289;28;20511;-80
2023/06/25 03:21:51;;;;;;;0.20;0.20;;;18.20;99.90;;;;;;5048897;28;20721;-79
2023/06/25 03:24:17;;;;;;;0.20;0.20;;;18.20;99.90;;;;;;5048936;28;20080;-80
2023/06/25 03:26:43;;;;;;;0.15;0.15;;;18.20;99.90;;;;;;5050953;28;20033;-80
2023/06/25 03:29:08;;;;;;;0.13;0.13;;;18.20;99.90;;;;;;5032710;28;20045;-79
2023/06/25 03:31:34;;;;;;;0.20;0.20;;;18.10;99.90;;;;;;5037580;28;20110;-78
2023/06/25 03:34:00;;;;;;;0.20;0.20;;;18.10;99.90;;;;;;5050746;28;20126;-80
2023/06/25 03:36:25;;;;;;;0.20;0.20;;;18.20;99.90;;;;;;5051156;28;20485;-79
2023/06/25 03:38:51;;;;;;;0.20;0.20;;;18.20;99.90;;;;;;5050798;28;20056;-80
2023/06/25 03:41:17;;;;;;;0.20;0.20;;;18.10;99.90;;;;;;5046375;28;20087;-80
2023/06/25 03:43:42;;;;;;;0.20;0.20;;;18.10;99.90;;;;;;5045962;28;20110;-80
2023/06/25 03:46:08;;;;;;;0.20;0.20;;;18.10;99.90;;;;;;5049775;28;20120;-80
2023/06/25 03:48:34;;;;;;;0.20;0.20;;;18.20;99.90;;;;;;5050284;28;20041;-80
2023/06/25 03:50:59;;;;;;;0.20;0.20;;;18.20;99.90;;;;;;5051046;28;20082;-80
2023/06/25 03:53:26;;;;;;;0.20;0.20;;;18.20;99.90;;;;;;5049569;28;20049;-80
2023/06/25 03:55:52;;;;;;;0.20;0.20;;;18.20;99.90;;;;;;5051603;28;20053;-80
2023/06/25 03:58:18;;;;;;;0.20;0.20;;;18.20;99.90;;;;;;5049018;28;20143;-79
2023/06/25 04:00:44;;;;;;;0.20;0.20;;;18.20;99.90;;;;;;5049809;28;20087;-80
2023/06/25 04:03:11;;;;;;;0.20;0.20;;;18.30;99.90;;;;;;5047832;28;20044;-80
2023/06/25 04:05:36;;;;;;;0.20;0.20;;;18.30;99.90;;;;;;5049518;28;20053;-81
2023/06/25 04:08:02;;;;;;;0.20;0.20;;;18.30;99.90;;;;;;5048776;28;20094;-80
2023/06/25 04:10:29;;;;;;;0.20;0.20;;;18.30;99.90;;;;;;5051026;28;20041;-80
2023/06/25 04:12:54;;;;;;;0.20;0.20;;;18.30;99.90;;;;;;5048856;28;20186;-80
2023/06/25 04:15:20;;;;;;;0.20;0.20;;;18.40;99.90;;;;;;5050256;28;20041;-79
2023/06/25 04:17:49;;;;;;;0.30;0.30;;;18.40;99.90;;;;;;5048756;28;20392;-80
2023/06/25 04:20:15;;;;;;;0.20;0.20;;;18.40;99.90;;;;;;5051393;28;20141;-80
2023/06/25 04:22:40;;;;;;;0.20;0.20;;;18.40;99.90;;;;;;5045559;28;20455;-79
2023/06/25 04:25:06;;;;;;;0.20;0.20;;;18.50;99.90;;;;;;5047922;28;20051;-80
2023/06/25 04:27:32;;;;;;;0.20;0.20;;;18.50;99.90;;;;;;5043520;28;20498;-80
2023/06/25 04:29:58;;;;;;;0.20;0.20;;;18.50;99.90;;;;;;5047465;28;20045;-79
2023/06/25 04:32:24;;;;;;;0.20;0.20;;;18.60;99.90;;;;;;5045720;28;20128;-80
2023/06/25 04:34:49;;;;;;;0.20;0.20;;;18.60;99.90;;;;;;5047144;28;20044;-80
2023/06/25 04:37:15;;;;;;;0.20;0.20;;;18.60;99.90;;;;;;5049277;28;20088;-79
2023/06/25 04:39:41;;;;;;;0.20;0.20;;;18.70;99.90;;;;;;5051425;28;20450;-80
2023/06/25 04:42:07;;;;;;;0.20;0.20;;;18.70;99.90;;;;;;5046984;28;20048;-80
2023/06/25 04:44:33;;;;;;;0.20;0.20;;;18.70;99.90;;;;;;5049328;28;20392;-80
2023/06/25 04:46:58;;;;;;;0.20;0.20;;;18.80;99.90;;;;;;5047902;28;20128;-80
2023/06/25 04:49:24;;;;;;;0.20;0.20;;;18.90;99.90;;;;;;5050239;28;20029;-80
2023/06/25 04:51:50;;;;;;;0.20;0.20;;;18.90;99.90;;;;;;5045288;28;20052;-79
2023/06/25 04:54:16;;;;;;;0.20;0.20;;;18.90;99.90;;;;;;5049804;28;20075;-79
2023/06/25 04:56:41;;;;;;;0.10;0.10;;;18.90;99.90;;;;;;5046902;28;20055;-79
2023/06/25 04:59:07;;;;;;;0.20;0.20;;;19.00;99.90;;;;;;5048073;28;20080;-79
2023/06/25 05:01:33;;;;;;;0.10;0.10;;;19.00;99.90;;;;;;5050138;28;20396;-79
2023/06/25 05:03:59;;;;;;;0.20;0.20;;;19.10;99.90;;;;;;5045425;28;20480;-80
2023/06/25 05:06:25;;;;;;;0.20;0.20;;;19.10;99.90;;;;;;5048414;28;20033;-80
2023/06/25 05:08:51;;;;;;;0.20;0.20;;;19.10;99.90;;;;;;5049713;28;20072;-80
2023/06/25 05:11:17;;;;;;;0.20;0.20;;;19.20;99.90;;;;;;5046819;28;20041;-79
2023/06/25 05:13:42;;;;;;;0.20;0.20;;;19.20;99.90;;;;;;5046110;28;20037;-80
2023/06/25 05:16:08;;;;;;;0.20;0.20;;;19.20;99.90;;;;;;5048108;28;20052;-79
2023/06/25 05:18:34;;;;;;;0.20;0.20;;;19.30;99.90;;;;;;5044497;28;20064;-79
2023/06/25 05:21:00;;;;;;;0.20;0.20;;;19.30;99.90;;;;;;5048537;28;20400;-79
2023/06/25 05:23:25;;;;;;;0.20;0.20;;;19.40;99.90;;;;;;5045773;28;20037;-80
2023/06/25 05:25:51;;;;;;;0.20;0.20;;;19.40;99.90;;;;;;5049930;28;20044;-80
2023/06/25 05:28:17;;;;;;;0.20;0.20;;;19.40;99.90;;;;;;5041052;28;20463;-80
2023/06/25 05:30:43;;;;;;;0.20;0.20;;;19.50;99.90;;;;;;5043573;28;20511;-79
2023/06/25 05:33:09;;;;;;;0.15;0.15;;;19.50;99.90;;;;;;5025295;28;20056;-79
2023/06/25 05:35:34;;;;;;;0.20;0.20;;;19.60;99.90;;;;;;5017980;28;20452;-79
2023/06/25 05:38:00;;;;;;;0.20;0.20;;;19.60;99.90;;;;;;5030327;28;20103;-79
2023/06/25 05:40:28;;;;;;;0.20;0.20;;;19.60;99.90;;;;;;5050908;28;20083;-79
2023/06/25 05:42:54;;;;;;;0.20;0.20;;;19.70;99.90;;;;;;5047101;28;20073;-80
2023/06/25 05:45:21;;;;;;;0.20;0.20;;;19.80;99.90;;;;;;5031400;28;20037;-80
2023/06/25 05:47:47;;;;;;;0.20;0.20;;;19.80;99.90;;;;;;5031440;28;20040;-79
2023/06/25 05:50:12;;;;;;;0.20;0.20;;;19.80;99.90;;;;;;5031335;28;20055;-79
2023/06/25 05:52:40;;;;;;;0.20;0.20;;;19.90;99.90;;;;;;5046689;28;20037;-78
2023/06/25 05:55:06;;;;;;;0.20;0.20;;;19.90;99.90;;;;;;5032109;28;20412;-79
2023/06/25 05:57:32;;;;;;;0.20;0.20;;;20.00;99.90;;;;;;5020540;28;20041;-79
2023/06/25 05:59:58;;;;;;;0.20;0.20;;;20.00;99.90;;;;;;5027179;28;20128;-80
2023/06/25 06:02:24;;;;;;;0.20;0.20;;;20.10;99.90;;;;;;5044852;28;20041;-79
2023/06/25 06:04:49;;;;;;;0.20;0.20;;;20.20;99.90;;;;;;5048293;28;20048;-80
2023/06/25 06:07:15;;;;;;;0.20;0.20;;;20.20;99.90;;;;;;5029353;28;20140;-79
2023/06/25 06:09:41;;;;;;;0.20;0.20;;;20.20;99.90;;;;;;5051653;28;20049;-80
2023/06/25 06:12:07;;;;;;;0.20;0.20;;;20.30;99.90;;;;;;5051425;28;20045;-79
2023/06/25 06:14:34;;;;;;;0.20;0.20;;;20.30;99.90;;;;;;5051178;28;20048;-79
2023/06/25 06:17:00;;;;;;;0.20;0.20;;;20.30;99.90;;;;;;5026127;28;20049;-79
2023/06/25 06:19:26;;;;;;;0.20;0.20;;;20.40;99.90;;;;;;5034868;28;20056;-80
2023/06/25 06:21:51;;;;;;;0.20;0.20;;;20.50;99.90;;;;;;5034508;28;20045;-79
2023/06/25 06:24:17;;;;;;;0.20;0.20;;;20.50;99.90;;;;;;5035176;28;20037;-80
2023/06/25 06:26:44;;;;;;;0.20;0.20;;;20.60;99.90;;;;;;5030327;28;20469;-80
2023/06/25 06:29:10;;;;;;;0.20;0.20;;;20.60;99.90;;;;;;5051668;28;20041;-80
2023/06/25 06:31:37;;;;;;;0.20;0.20;;;20.70;99.90;;;;;;5051447;28;20056;-80
2023/06/25 06:34:03;;;;;;;0.20;0.20;;;20.70;99.90;;;;;;5048780;28;20125;-80
2023/06/25 06:36:29;;;;;;;0.20;0.20;;;20.80;99.90;;;;;;5050216;28;20502;-79
2023/06/25 06:38:54;;;;;;;0.20;0.20;;;20.80;99.90;;;;;;5048921;28;20041;-80
2023/06/25 06:41:20;;;;;;;0.20;0.20;;;20.90;99.90;;;;;;5046475;28;20049;-80
2023/06/25 06:43:46;;;;;;;0.20;0.20;;;21.00;99.90;;;;;;5031156;28;20384;-80
2023/06/25 06:46:11;;;;;;;0.20;0.20;;;21.00;99.90;;;;;;5051156;28;20044;-78
2023/06/25 06:48:37;;;;;;;0.20;0.20;;;21.00;99.90;;;;;;5049336;28;20056;-80
2023/06/25 06:51:03;;;;;;;0.20;0.20;;;21.10;99.90;;;;;;5034097;28;20537;-80
2023/06/25 06:53:28;;;;;;;0.20;0.20;;;21.20;99.90;;;;;;5052331;28;20053;-80
2023/06/25 06:55:54;;;;;;;0.20;0.20;;;21.20;99.90;;;;;;5049424;28;20036;-79
2023/06/25 06:58:20;;;;;;;0.20;0.20;;;21.20;99.90;;;;;;5032581;28;20045;-79
2023/06/25 07:00:46;;;;;;;0.20;0.20;;;21.30;99.90;;;;;;5046501;28;20040;-86
2023/06/25 07:03:11;;;;;;;0.20;0.20;;;21.40;99.90;;;;;;5045980;28;20135;-80
2023/06/25 07:05:37;;;;;;;0.55;0.20;;;21.50;99.90;;;;;;5035380;28;20051;-80
2023/06/25 07:08:03;;;;;;;0.20;0.20;;;21.50;99.90;;;;;;5053021;28;20033;-81
2023/06/25 07:10:29;;;;;;;0.20;0.20;;;21.50;99.90;;;;;;5023242;28;20553;-81
2023/06/25 07:12:54;;;;;;;0.20;0.20;;;21.60;99.90;;;;;;5032568;28;20052;-80
2023/06/25 07:15:20;;;;;;;0.20;0.20;;;21.70;99.90;;;;;;5032357;28;20043;-80
2023/06/25 07:17:46;;;;;;;0.20;0.20;;;21.80;99.90;;;;;;5051063;28;20083;-80
2023/06/25 07:20:12;;;;;;;0.20;0.20;;;21.80;99.90;;;;;;5032726;28;20091;-80
2023/06/25 07:22:40;;;;;;;0.13;0.13;;;21.90;99.90;;;;;;5032502;28;20134;-81
2023/06/25 07:25:10;;;;;;;0.20;0.20;;;21.90;99.90;;;;;;5033278;28;20037;-80
2023/06/25 07:27:36;;;;;;;0.20;0.20;;;22.00;99.90;;;;;;5049849;28;20052;-80
2023/06/25 07:30:03;;;;;;;0.20;0.20;;;22.00;99.90;;;;;;5041962;28;20053;-79
2023/06/25 07:32:29;;;;;;;0.20;0.20;;;22.10;99.90;;;;;;5047565;28;20052;-79
2023/06/25 07:34:57;;;;;;;0.20;0.20;;;22.20;99.90;;;;;;5048074;28;20123;-80
2023/06/25 07:37:23;;;;;;;0.20;0.20;;;22.20;99.90;;;;;;5044112;28;20397;-81
2023/06/25 07:39:48;;;;;;;0.20;0.20;;;22.30;99.90;;;;;;5032398;28;20046;-80
2023/06/25 07:42:14;;;;;;;0.20;0.20;;;22.30;99.90;;;;;;5045685;28;20079;-79
2023/06/25 07:44:39;;;;;;;0.20;0.20;;;22.40;99.90;;;;;;5048839;28;20049;-79
2023/06/25 07:47:05;;;;;;;0.20;0.20;;;22.50;99.90;;;;;;5045684;28;20128;-77
2023/06/25 07:49:31;;;;;;;0.20;0.20;;;22.50;99.90;;;;;;5043547;28;20044;-79
2023/06/25 07:51:57;;;;;;;0.20;0.20;;;22.60;99.90;;;;;;5043058;28;20033;-80
2023/06/25 07:54:22;;;;;;;0.20;0.20;;;22.60;99.90;;;;;;5042187;28;20357;-79
2023/06/25 07:56:48;;;;;;;0.20;0.20;;;22.70;99.90;;;;;;5045951;28;20040;-80
2023/06/25 07:59:15;;;;;;;0.20;0.20;;;22.80;99.90;;;;;;5049979;28;20128;-80
2023/06/25 08:01:41;;;;;;;0.20;0.20;;;22.90;99.90;;;;;;5045991;28;20091;-79
2023/06/25 08:04:07;;;;;;;0.28;0.28;;;22.90;99.90;;;;;;5047611;28;20041;-79
2023/06/25 08:06:33;;;;;;;0.20;0.20;;;23.00;99.90;;;;;;5047680;28;20040;-80
2023/06/25 08:08:59;;;;;;;0.20;0.20;;;23.10;99.90;;;;;;5049301;28;20045;-79
2023/06/25 08:11:25;;;;;;;0.20;0.20;;;23.20;99.90;;;;;;5051431;28;20037;-79
2023/06/25 08:13:50;;;;;;;0.20;0.20;;;23.20;99.90;;;;;;5050162;28;20130;-80
2023/06/25 08:16:16;;;;;;;0.20;0.20;;;23.30;99.90;;;;;;5051073;28;20128;-80
2023/06/25 08:18:42;;;;;;;0.20;0.20;;;23.40;99.90;;;;;;5050108;28;20092;-81
2023/06/25 08:21:08;;;;;;;0.20;0.20;;;23.50;99.90;;;;;;5049796;28;20040;-83
2023/06/25 08:23:34;;;;;;;0.20;0.20;;;23.60;99.90;;;;;;5048129;28;20488;-80
2023/06/25 08:26:00;;;;;;;0.20;0.20;;;23.40;99.90;;;;;;5048576;28;20112;-81
2023/06/25 08:28:25;;;;;;;0.20;0.20;;;23.70;99.90;;;;;;5035660;28;20053;-79
2023/06/25 08:30:51;;;;;;;0.20;0.20;;;23.70;99.90;;;;;;5031094;28;20045;-79
2023/06/25 08:33:17;;;;;;;0.20;0.20;;;23.80;99.90;;;;;;5016663;28;20051;-80
2023/06/25 08:35:42;;;;;;;0.20;0.20;;;23.90;99.90;;;;;;5032003;28;20491;-80
2023/06/25 08:38:09;;;;;;;0.20;0.20;;;24.00;99.90;;;;;;5051095;28;20033;-80
2023/06/25 08:40:36;;;;;;;0.20;0.20;;;24.00;99.90;;;;;;5050593;28;20041;-80
2023/06/25 08:43:02;;;;;;;0.20;0.20;;;24.10;99.90;;;;;;5031915;28;20052;-80
2023/06/25 08:45:28;;;;;;;0.20;0.20;;;24.20;99.90;;;;;;5033348;28;20404;-80
2023/06/25 08:47:55;;;;;;;0.20;0.20;;;24.30;99.90;;;;;;5050406;28;20330;-79
2023/06/25 08:50:22;;;;;;;0.20;0.20;;;24.30;99.90;;;;;;5032268;28;20052;-80
2023/06/25 08:52:48;;;;;;;0.20;0.20;;;24.40;99.90;;;;;;5016149;28;20624;-79
2023/06/25 08:55:14;;;;;;;0.20;0.20;;;24.50;99.90;;;;;;5031157;28;20116;-80
2023/06/25 08:57:40;;;;;;;0.20;0.20;;;24.50;99.90;;;;;;5049112;28;20040;-79
2023/06/25 09:00:07;;;;;;;0.20;0.20;;;24.60;99.90;;;;;;5033335;28;20111;-80
2023/06/25 09:02:34;;;;;;;0.20;0.20;;;24.60;99.90;;;;;;5047940;28;20099;-80
2023/06/25 09:05:07;;;;;;;0.20;0.20;;;24.70;99.90;;;;;;5050107;28;20530;-80
2023/06/25 09:07:35;;;;;;;0.20;0.20;;;24.70;99.90;;;;;;5031829;28;20037;-80
2023/06/25 09:10:01;;;;;;;0.20;0.20;;;24.80;99.90;;;;;;5049636;28;20098;-79
2023/06/25 09:12:26;;;;;;;0.20;0.20;;;24.90;99.90;;;;;;5049864;28;20049;-80
2023/06/25 09:14:52;;;;;;;0.20;0.20;;;25.00;99.90;;;;;;5050407;28;20111;-80
2023/06/25 09:17:22;;;;;;;0.20;0.20;;;25.00;99.90;;;;;;5027422;28;20041;-80
2023/06/25 09:19:49;;;;;;;;;;;25.10;99.90;;;;;;5049596;28;20045;-80
2023/06/25 09:22:14;;;;;;;0.20;0.20;;;25.10;99.70;;;;;;5031932;28;20360;-80
2023/06/25 09:24:44;;;;;;;0.20;0.20;;;25.20;99.20;;;;;;5031682;28;20049;-81
2023/06/25 09:27:11;;;;;;;0.20;0.20;;;25.20;98.70;;;;;;5031036;28;20037;-80
2023/06/25 09:29:37;;;;;;;0.20;0.20;;;25.30;98.60;;;;;;5049160;28;20307;-79
2023/06/25 09:32:10;;;;;;;0.20;0.20;;;25.30;98.20;;;;;;5039339;28;20599;-79
2023/06/25 09:34:39;;;;;;;0.20;0.20;;;25.40;97.50;;;;;;5048182;28;20087;-80
2023/06/25 09:37:05;;;;;;;0.30;0.30;;;25.40;97.70;;;;;;5040501;28;20155;-80
2023/06/25 09:39:31;;;;;;;0.20;0.20;;;25.50;97.40;;;;;;5047979;28;20451;-79
2023/06/25 09:41:58;;;;;;;0.20;0.20;;;25.50;97.10;;;;;;5046578;28;20040;-80
2023/06/25 09:44:24;;;;;;;0.20;0.20;;;25.60;97.10;;;;;;5045264;28;20558;-79
2023/06/25 09:46:53;;;;;;;0.20;0.20;;;25.60;96.90;;;;;;5039868;28;20049;-79
2023/06/25 09:49:20;;;;;;;0.20;0.20;;;25.70;96.70;;;;;;5045211;28;20049;-78
2023/06/25 09:51:54;;;;;;;0.20;0.20;;;25.70;96.80;;;;;;5046503;28;20497;-79
2023/06/25 09:54:22;;;;;;;0.20;0.20;;;25.70;96.60;;;;;;5043172;28;20037;-79
2023/06/25 09:56:49;;;;;;;0.20;0.20;;;25.70;96.80;;;;;;5038961;28;20048;-79
2023/06/25 09:59:16;;;;;;;0.20;0.20;;;25.80;96.40;;;;;;5046743;28;20131;-80
2023/06/25 10:01:42;;;;;;;0.20;0.20;;;25.80;96.30;;;;;;5049880;28;20599;-79
2023/06/25 10:04:08;;;;;;;0.20;0.20;;;25.80;96.00;;;;;;5048609;28;20037;-79
2023/06/25 10:06:35;;;;;;;0.20;0.20;;;25.90;96.30;;;;;;5046987;28;20106;-79
2023/06/25 10:09:03;;;;;;;0.40;0.32;;;25.90;96.20;;;;;;5049515;28;20049;-79
2023/06/25 10:11:28;;;;;;;0.20;0.20;;;26.00;96.30;;;;;;5048684;28;20056;-79
2023/06/25 10:13:56;;;;;;;0.20;0.20;;;26.00;95.90;;;;;;5046390;28;20072;-79
2023/06/25 10:16:22;;;;;;;0.20;0.20;;;26.10;96.00;;;;;;5048824;28;20208;-78
2023/06/25 10:18:52;;;;;;;0.20;0.20;;;26.10;95.90;;;;;;5050125;28;20575;-80
2023/06/25 10:21:20;;;;;;;0.25;0.25;;;26.20;95.50;;;;;;5048616;28;20054;-79
2023/06/25 10:24:00;;;;;;;0.20;0.20;;;26.30;94.90;;;;;;5040461;28;20041;-79
2023/06/25 10:26:30;;;;;;;0.20;0.20;;;26.40;95.10;;;;;;5042299;28;20037;-79
2023/06/25 10:29:00;;;;;;;0.20;0.20;;;26.40;94.20;;;;;;5041872;28;20577;-80
2023/06/25 10:31:35;;;;;;;0.20;0.20;;;26.40;94.00;;;;;;5044544;28;20057;-79
2023/06/25 10:34:08;;;;;;;0.20;0.20;;;26.60;94.40;;;;;;5038738;28;20519;-79
2023/06/25 10:36:34;;;;;;;0.20;0.20;;;26.60;93.70;;;;;;5038274;28;20051;-80
2023/06/25 10:39:00;;;;;;;0.20;0.20;;;26.70;94.20;;;;;;5041590;28;20048;-79
2023/06/25 10:41:31;;;;;;;0.20;0.20;;;26.70;93.90;;;;;;5044282;28;20053;-78
2023/06/25 10:43:59;;;;;;;0.20;0.20;;;26.80;93.10;;;;;;5037501;28;20048;-79
2023/06/25 10:46:30;;;;;;;0.20;0.20;;;26.80;93.60;;;;;;5049763;28;20068;-79
2023/06/25 10:48:56;;;;;;;0.20;0.20;;;26.90;93.40;;;;;;5038180;28;20061;-81
2023/06/25 10:51:23;;;;;;;0.20;0.20;;;26.90;93.60;;;;;;5040598;28;20099;-79
2023/06/25 10:53:48;;;;;;;0.20;0.20;;;27.00;93.10;;;;;;5039761;28;20057;-79
2023/06/25 10:56:15;;;;;;;0.20;0.20;;;27.00;93.30;;;;;;5042658;28;20099;-79
2023/06/25 10:58:44;;;;;;;0.20;0.20;;;27.00;93.20;;;;;;5044449;28;20106;-79
2023/06/25 11:01:09;;;;;;;0.20;0.20;;;27.10;93.10;;;;;;5046848;28;20091;-79
2023/06/25 11:03:37;;;;;;;0.20;0.20;;;27.20;92.00;;;;;;5039423;28;20049;-79
2023/06/25 11:06:03;;;;;;;0.20;0.20;;;27.20;91.80;;;;;;5050933;28;20033;-79
2023/06/25 11:08:29;;;;;;;0.20;0.20;;;27.30;92.50;;;;;;5050035;28;20048;-79
2023/06/25 11:10:55;;;;;;;0.20;0.20;;;27.40;92.60;;;;;;5045276;28;20562;-79
2023/06/25 11:13:20;;;;;;;0.20;0.20;;;27.40;92.70;;;;;;5037215;28;20041;-79
2023/06/25 11:15:46;;;;;;;0.13;0.13;;;27.50;92.40;;;;;;5047703;28;20041;-79
2023/06/25 11:18:12;;;;;;;0.20;0.20;;;27.50;92.40;;;;;;5050500;28;20130;-79
2023/06/25 11:20:42;;;;;;;0.20;0.20;;;27.60;92.20;;;;;;5063294;28;20036;-79
2023/06/25 11:23:10;;;;;;;0.20;0.20;;;27.70;91.70;;;;;;5053036;28;20052;-79
2023/06/25 11:25:36;;;;;;;0.20;0.20;;;27.80;92.00;;;;;;5052537;28;20103;-78
2023/06/25 11:28:08;;;;;;;0.30;0.30;;;27.80;90.10;;;;;;5050964;28;20476;-79
2023/06/25 11:30:34;;;;;;;0.20;0.20;;;27.90;91.40;;;;;;5047443;28;20033;-79
2023/06/25 11:33:26;;;;;;;0.20;0.20;;;28.00;91.30;;;;;;5049417;28;20053;-79
2023/06/25 11:35:53;;;;;;;0.20;0.20;;;28.20;91.30;;;;;;5027840;28;20065;-79
2023/06/25 11:38:26;;;;;;;0.20;0.20;;;28.30;91.30;;;;;;5029928;28;20466;-79
2023/06/25 11:40:53;;;;;;;0.20;0.20;;;28.40;91.30;;;;;;5050298;28;20053;-80
2023/06/25 11:43:22;;;;;;;0.20;0.20;;;28.50;91.40;;;;;;5032597;28;20088;-79
2023/06/25 11:45:48;;;;;;;0.28;0.20;;;28.60;91.30;;;;;;5034143;28;20063;-78
2023/06/25 11:48:16;;;;;;;0.20;0.20;;;28.60;90.80;;;;;;5032416;28;20124;-79
2023/06/25 11:50:46;;;;;;;0.20;0.20;;;28.70;90.20;;;;;;5032851;28;20049;-79
2023/06/25 11:53:12;;;;;;;0.20;0.20;;;28.90;90.80;;;;;;5049186;28;20053;-80
2023/06/25 11:55:39;;;;;;;0.20;0.20;;;29.00;91.00;;;;;;5050624;28;20037;-78
2023/06/25 11:58:05;;;;;;;0.30;0.30;;;29.00;90.70;;;;;;5046507;28;20090;-78
2023/06/25 12:00:30;;;;;;;0.20;0.20;;;29.10;89.20;;;;;;5033220;28;20481;-79
2023/06/25 12:02:56;;;;;;;0.20;0.20;;;29.20;88.80;;;;;;5044099;28;20057;-79
2023/06/25 12:05:22;;;;;;;0.20;0.20;;;29.30;89.50;;;;;;5045474;28;20504;-79
2023/06/25 12:07:48;;;;;;;0.20;0.20;;;29.30;88.10;;;;;;5026608;28;20045;-79
2023/06/25 12:10:13;;;;;;;0.20;0.20;;;29.40;89.10;;;;;;5032956;28;20041;-80
2023/06/25 12:12:39;;;;;;;0.20;0.20;;;29.50;89.60;;;;;;5029486;28;20037;-79
2023/06/25 12:15:05;;;;;;;0.20;0.20;;;29.60;89.90;;;;;;5051153;28;20491;-79
2023/06/25 12:17:31;;;;;;;0.20;0.20;;;29.70;88.80;;;;;;5030765;28;20037;-79
2023/06/25 12:19:56;;;;;;;0.20;0.20;;;29.80;87.90;;;;;;5033790;28;20102;-79
2023/06/25 12:22:22;;;;;;;0.20;0.20;;;29.80;84.20;;;;;;5029913;28;20183;-79
2023/06/25 12:24:48;;;;;;;0.20;0.20;;;29.90;84.90;;;;;;5033893;28;20045;-79
2023/06/25 12:27:13;;;;;;;0.20;0.20;;;30.00;86.30;;;;;;5031478;28;20057;-79
2023/06/25 12:29:39;;;;;;;0.20;0.20;;;30.00;87.20;;;;;;5051295;28;20037;-79
2023/06/25 12:32:05;;;;;;;0.20;0.20;;;30.10;87.10;;;;;;5042743;28;20084;-79
2023/06/25 12:34:31;;;;;;;0.20;0.20;;;30.20;86.10;;;;;;5047840;28;20120;-79
2023/06/25 12:36:56;;;;;;;0.20;0.20;;;30.30;85.70;;;;;;5050908;28;20551;-79
2023/06/25 12:39:22;;;;;;;0.20;0.20;;;30.40;86.00;;;;;;5049545;28;20049;-77
2023/06/25 12:41:48;;;;;;;0.20;0.20;;;30.50;86.00;;;;;;5045047;28;20047;-79
2023/06/25 12:44:13;;;;;;;0.20;0.20;;;30.60;85.30;;;;;;5047205;28;20040;-78